Time;durP1;ratioP1;P1;durP2;ratioP2;P2;SDS_P1;SDS_P2;PMS_P1;PMS_P2;Temp;Humidity;BMP_temperature;BMP_pressure;BME280_temperature;BME280_humidity;BME280_pressure;Samples;Min_cycle;Max_cycle;Signal;HPM_P1;HPM_P2
2021/10/11 00:00:45;;;;;;;17.27;10.23;;;;;;;0.11;100.00;101603.63;5020263;28;20219;-71
2021/10/11 00:03:13;;;;;;;19.20;10.67;;;;;;;-0.06;100.00;101597.91;5043621;28;20193;-72
2021/10/11 00:05:40;;;;;;;21.37;11.07;;;;;;;0.04;100.00;101611.06;5030722;28;20197;-72
2021/10/11 00:08:08;;;;;;;18.93;10.63;;;;;;;0.13;100.00;101601.09;5025885;28;20538;-72
2021/10/11 00:10:35;;;;;;;18.80;10.50;;;;;;;0.00;100.00;101602.41;5025971;28;20235;-70
2021/10/11 00:13:02;;;;;;;20.27;11.00;;;;;;;0.01;100.00;101598.13;5025147;28;20196;-70
2021/10/11 00:15:29;;;;;;;17.40;9.67;;;;;;;0.07;100.00;101595.75;5025890;28;20208;-72
2021/10/11 00:17:58;;;;;;;16.57;10.53;;;;;;;-0.04;100.00;101593.72;5025670;28;20631;-71
2021/10/11 00:20:28;;;;;;;15.50;9.83;;;;;;;-0.21;100.00;101593.19;5021149;28;20272;-71
2021/10/11 00:22:55;;;;;;;17.60;9.57;;;;;;;-0.34;100.00;101596.13;5027305;28;20311;-71
2021/10/11 00:25:22;;;;;;;21.37;11.07;;;;;;;-0.22;100.00;101581.16;5026684;28;20211;-72
2021/10/11 00:27:48;;;;;;;18.13;10.43;;;;;;;-0.23;100.00;101582.00;5032225;28;20312;-70
2021/10/11 00:30:17;;;;;;;17.10;10.27;;;;;;;-0.32;100.00;101581.66;5022813;28;20212;-70
2021/10/11 00:32:46;;;;;;;19.53;10.70;;;;;;;-0.31;100.00;101586.00;5026914;28;20228;-69
2021/10/11 00:35:13;;;;;;;17.33;10.20;;;;;;;-0.18;100.00;101581.28;5028237;28;20471;-71
2021/10/11 00:37:41;;;;;;;17.03;9.93;;;;;;;-0.24;100.00;101579.38;5028145;28;20767;-70
2021/10/11 00:40:09;;;;;;;16.87;10.57;;;;;;;-0.25;100.00;101583.63;5030356;28;20473;-70
2021/10/11 00:42:38;;;;;;;18.93;10.67;;;;;;;-0.22;100.00;101583.72;5029050;28;20279;-71
2021/10/11 00:45:10;;;;;;;19.67;10.27;;;;;;;-0.39;100.00;101579.72;5022409;28;20235;-71
2021/10/11 00:47:37;;;;;;;20.67;10.70;;;;;;;-0.40;100.00;101583.13;5032987;28;20234;-71
2021/10/11 00:50:05;;;;;;;18.60;10.87;;;;;;;-0.45;100.00;101579.53;5021894;28;20288;-70
2021/10/11 00:52:31;;;;;;;21.53;10.57;;;;;;;-0.34;100.00;101579.91;5031828;28;20224;-71
2021/10/11 00:54:59;;;;;;;20.50;10.77;;;;;;;-0.44;100.00;101587.28;5025976;28;20268;-72
2021/10/11 00:57:26;;;;;;;19.33;10.57;;;;;;;-0.46;100.00;101590.59;5026198;28;20446;-71
2021/10/11 00:59:53;;;;;;;18.50;10.33;;;;;;;-0.29;100.00;101593.72;5024458;28;20452;-69
2021/10/11 01:02:19;;;;;;;18.27;10.33;;;;;;;-0.40;100.00;101596.81;5019501;28;20246;-70
2021/10/11 01:04:46;;;;;;;20.10;10.43;;;;;;;-0.59;100.00;101585.03;5018774;28;20199;-71
2021/10/11 01:07:16;;;;;;;17.77;9.83;;;;;;;-0.54;100.00;101584.34;5021462;28;20515;-69
2021/10/11 01:09:43;;;;;;;19.50;10.47;;;;;;;-0.69;100.00;101572.72;5029106;28;20730;-71
2021/10/11 01:12:11;;;;;;;17.53;10.03;;;;;;;-0.62;100.00;101574.69;5025873;28;20255;-69
2021/10/11 01:14:39;;;;;;;15.37;8.97;;;;;;;-0.36;100.00;101561.91;5024547;28;20216;-70
2021/10/11 01:17:06;;;;;;;19.53;9.53;;;;;;;-0.47;100.00;101556.41;5022698;28;20486;-70
2021/10/11 01:19:33;;;;;;;19.80;10.47;;;;;;;-0.38;100.00;101555.84;5025627;28;20214;-71
2021/10/11 01:22:01;;;;;;;18.13;10.70;;;;;;;-0.61;100.00;101552.50;5020009;28;20254;-70
2021/10/11 01:24:27;;;;;;;18.77;9.90;;;;;;;-0.32;100.00;101552.63;5020887;28;20299;-69
2021/10/11 01:26:54;;;;;;;19.70;11.17;;;;;;;-0.39;100.00;101543.84;5020584;28;20487;-70
2021/10/11 01:29:21;;;;;;;18.70;10.23;;;;;;;-0.38;100.00;101546.47;5028547;28;20461;-71
2021/10/11 01:31:49;;;;;;;21.53;10.60;;;;;;;-0.59;100.00;101544.06;5027180;28;20242;-70
2021/10/11 01:34:19;;;;;;;16.10;10.20;;;;;;;-0.40;100.00;101548.13;5015772;28;20962;-71
2021/10/11 01:36:46;;;;;;;18.07;10.50;;;;;;;-0.51;100.00;101546.00;5041594;28;20275;-71
2021/10/11 01:39:14;;;;;;;19.17;10.73;;;;;;;-0.70;100.00;101553.06;5021950;28;20204;-70
2021/10/11 01:41:41;;;;;;;21.57;10.70;;;;;;;-0.71;100.00;101545.31;5021329;28;20240;-71
2021/10/11 01:44:08;;;;;;;16.10;9.97;;;;;;;-0.73;100.00;101546.97;5023415;28;20474;-71
2021/10/11 01:46:36;;;;;;;18.00;10.20;;;;;;;-0.84;100.00;101554.28;5022605;28;20484;-70
2021/10/11 01:49:03;;;;;;;18.77;10.07;;;;;;;-0.64;100.00;101553.25;5030822;28;20473;-72
2021/10/11 01:51:30;;;;;;;16.47;10.13;;;;;;;-0.69;100.00;101552.22;5019395;28;20518;-71
2021/10/11 01:53:59;;;;;;;17.83;10.40;;;;;;;-0.81;100.00;101545.03;5023058;28;20954;-70
2021/10/11 01:56:29;;;;;;;20.20;10.40;;;;;;;-0.58;100.00;101535.56;5023188;28;20473;-71
2021/10/11 01:58:57;;;;;;;21.20;10.20;;;;;;;-0.68;100.00;101538.63;5042692;28;20457;-71
2021/10/11 02:01:24;;;;;;;19.03;10.20;;;;;;;-0.65;100.00;101540.41;5039825;28;20516;-70
2021/10/11 02:03:50;;;;;;;18.90;10.03;;;;;;;-0.66;100.00;101539.53;5025970;28;20549;-70
2021/10/11 02:06:18;;;;;;;21.87;10.30;;;;;;;-0.64;100.00;101526.78;5023848;28;20458;-69
2021/10/11 02:08:45;;;;;;;16.83;10.33;;;;;;;-0.67;100.00;101519.00;5022410;28;20882;-70
2021/10/11 02:11:11;;;;;;;19.27;10.57;;;;;;;-0.50;100.00;101517.88;5024263;28;20486;-70
2021/10/11 02:13:40;;;;;;;20.53;9.90;;;;;;;-0.62;100.00;101527.72;5022625;28;20458;-71
2021/10/11 02:16:07;;;;;;;17.87;10.40;;;;;;;-0.86;100.00;101531.19;5020747;28;20497;-70
2021/10/11 02:18:34;;;;;;;16.27;9.70;;;;;;;-0.61;100.00;101514.09;5038626;28;20469;-70
2021/10/11 02:21:01;;;;;;;17.47;9.77;;;;;;;-0.64;100.00;101514.84;5021095;28;21368;-72
2021/10/11 02:23:28;;;;;;;17.00;10.10;;;;;;;-0.66;100.00;101508.81;5023841;28;20899;-71
2021/10/11 02:25:55;;;;;;;16.23;10.00;;;;;;;-0.65;100.00;101504.53;5021977;28;20462;-71
2021/10/11 02:28:22;;;;;;;17.63;9.93;;;;;;;-0.83;100.00;101508.22;5024587;28;20453;-71
2021/10/11 02:30:54;;;;;;;18.40;9.90;;;;;;;-0.72;100.00;101505.16;5025669;28;20473;-71
2021/10/11 02:33:21;;;;;;;20.33;9.43;;;;;;;-0.71;100.00;101509.47;5021056;28;20485;-72
2021/10/11 02:35:50;;;;;;;14.87;9.43;;;;;;;-0.98;100.00;101500.88;5016980;28;20552;-71
2021/10/11 02:38:17;;;;;;;17.77;10.07;;;;;;;-0.79;100.00;101497.28;5026787;28;20256;-72
2021/10/11 02:40:46;;;;;;;19.67;10.13;;;;;;;-0.66;100.00;101495.13;5021448;28;20507;-70
2021/10/11 02:43:13;;;;;;;17.53;10.20;;;;;;;-0.63;100.00;101477.31;5043543;28;20451;-70
2021/10/11 02:45:41;;;;;;;18.33;9.47;;;;;;;-0.63;100.00;101485.00;5033853;28;20510;-70
2021/10/11 02:48:09;;;;;;;17.40;10.10;;;;;;;-1.08;100.00;101486.00;5024988;28;20505;-72
2021/10/11 02:50:36;;;;;;;17.40;10.10;;;;;;;-0.78;100.00;101478.50;5046228;28;20455;-70
2021/10/11 02:53:05;;;;;;;14.73;9.67;;;;;;;-0.69;100.00;101474.53;5014582;28;20528;-71
2021/10/11 02:55:32;;;;;;;16.20;9.40;;;;;;;-0.70;100.00;101470.22;5021943;28;20518;-71
2021/10/11 02:58:01;;;;;;;17.83;10.30;;;;;;;-1.04;100.00;101463.97;5021576;28;20497;-70
2021/10/11 03:00:30;;;;;;;16.50;9.53;;;;;;;-0.98;100.00;101467.59;5026946;28;20472;-70
2021/10/11 03:02:57;;;;;;;19.17;10.17;;;;;;;-1.03;100.00;101465.72;5025442;28;20462;-69
2021/10/11 03:05:25;;;;;;;15.80;9.17;;;;;;;-1.09;100.00;101475.72;5023108;28;20457;-70
2021/10/11 03:07:52;;;;;;;19.10;10.60;;;;;;;-1.12;100.00;101461.16;5022078;28;20502;-71
2021/10/11 03:10:18;;;;;;;19.23;10.00;;;;;;;-0.88;100.00;101458.56;5022742;28;20838;-72
2021/10/11 03:12:46;;;;;;;20.30;10.10;;;;;;;-0.68;100.00;101453.25;5032258;28;20614;-71
2021/10/11 03:15:12;;;;;;;18.27;10.10;;;;;;;-0.75;100.00;101447.03;5023951;28;20458;-71
2021/10/11 03:17:39;;;;;;;18.73;10.93;;;;;;;-0.64;100.00;101442.25;5019187;28;20475;-71
2021/10/11 03:20:08;;;;;;;19.57;10.83;;;;;;;-0.53;100.00;101437.47;5019615;28;20471;-71
2021/10/11 03:22:36;;;;;;;20.60;10.93;;;;;;;-0.52;100.00;101437.53;5027499;28;20493;-70
2021/10/11 03:25:03;;;;;;;19.97;10.17;;;;;;;-0.60;100.00;101426.16;5022376;28;20481;-71
2021/10/11 03:27:30;;;;;;;17.63;10.27;;;;;;;-0.48;100.00;101423.13;5024493;28;20196;-71
2021/10/11 03:29:57;;;;;;;17.90;11.57;;;;;;;-0.35;100.00;101417.59;5021628;28;20455;-70
2021/10/11 03:32:25;;;;;;;20.77;10.67;;;;;;;-0.42;100.00;101423.34;5026161;28;20223;-71
2021/10/11 03:34:52;;;;;;;18.53;11.27;;;;;;;-0.35;100.00;101416.69;5028070;28;20460;-69
2021/10/11 03:37:19;;;;;;;18.93;10.63;;;;;;;-0.24;100.00;101405.94;5029399;28;20645;-70
2021/10/11 03:39:51;;;;;;;18.93;11.17;;;;;;;-0.26;100.00;101407.59;5027006;28;20462;-71
2021/10/11 03:42:18;;;;;;;21.10;11.10;;;;;;;-0.37;100.00;101403.81;5023657;28;20217;-71
2021/10/11 03:44:44;;;;;;;24.57;11.03;;;;;;;-0.18;100.00;101399.28;5019790;28;20578;-71
2021/10/11 03:47:11;;;;;;;21.93;11.03;;;;;;;-0.23;100.00;101394.88;5026502;28;20592;-69
2021/10/11 03:49:40;;;;;;;19.90;11.23;;;;;;;-0.34;100.00;101396.25;5031791;28;21030;-69
2021/10/11 03:52:06;;;;;;;16.80;10.20;;;;;;;-0.29;100.00;101392.13;5026218;28;20254;-71
2021/10/11 03:54:33;;;;;;;21.70;11.20;;;;;;;-0.29;100.00;101391.25;5027065;28;20577;-70
2021/10/11 03:57:01;;;;;;;22.30;11.40;;;;;;;-0.16;100.00;101385.66;5028718;28;20211;-70
2021/10/11 03:59:28;;;;;;;19.13;10.70;;;;;;;-0.15;100.00;101384.00;5025660;28;20463;-71
2021/10/11 04:01:55;;;;;;;18.47;10.30;;;;;;;-0.06;100.00;101382.56;5030024;28;20467;-70
2021/10/11 04:04:22;;;;;;;21.97;11.57;;;;;;;-0.05;100.00;101384.31;5024533;28;20239;-70
2021/10/11 04:06:53;;;;;;;20.40;11.00;;;;;;;-0.07;100.00;101383.41;5029700;28;20836;-70
2021/10/11 04:09:26;;;;;;;21.60;11.73;;;;;;;0.00;100.00;101376.75;5027323;28;20530;-69
2021/10/11 04:11:53;;;;;;;18.23;11.17;;;;;;;0.14;100.00;101379.69;5020195;28;20252;-70
2021/10/11 04:14:24;;;;;;;20.27;12.20;;;;;;;0.24;100.00;101380.84;5028294;28;20201;-71
2021/10/11 04:16:51;;;;;;;19.90;10.77;;;;;;;0.11;100.00;101372.81;5034331;28;20263;-71
2021/10/11 04:19:18;;;;;;;20.30;11.33;;;;;;;0.11;100.00;101377.06;5031030;28;20196;-71
2021/10/11 04:21:45;;;;;;;17.47;11.13;;;;;;;0.24;100.00;101384.25;5027158;28;20272;-69
2021/10/11 04:24:14;;;;;;;21.00;11.03;;;;;;;0.31;100.00;101377.63;5028951;28;20201;-71
2021/10/11 04:26:40;;;;;;;19.50;11.33;;;;;;;0.42;100.00;101380.47;5031175;28;20188;-69
2021/10/11 04:29:07;;;;;;;19.07;11.17;;;;;;;0.37;100.00;101380.38;5029535;28;20192;-70
2021/10/11 04:31:35;;;;;;;20.83;12.17;;;;;;;0.48;100.00;101388.34;5033376;28;20228;-70
2021/10/11 04:34:04;;;;;;;21.90;11.87;;;;;;;0.43;100.00;101395.91;5031522;28;20224;-69
2021/10/11 04:36:30;;;;;;;18.77;10.67;;;;;;;0.61;100.00;101386.97;5031916;28;20212;-69
2021/10/11 04:38:57;;;;;;;19.00;11.03;;;;;;;0.69;100.00;101388.94;5028321;28;20197;-71
2021/10/11 04:41:23;;;;;;;19.00;11.87;;;;;;;0.84;100.00;101393.56;5035256;28;20231;-70
2021/10/11 04:43:52;;;;;;;19.23;11.03;;;;;;;0.77;100.00;101396.81;5029862;28;20200;-71
2021/10/11 04:46:18;;;;;;;22.20;12.30;;;;;;;0.85;100.00;101392.75;5034733;28;20208;-69
2021/10/11 04:48:47;;;;;;;22.13;11.20;;;;;;;0.90;100.00;101392.91;5028173;28;20208;-69
2021/10/11 04:51:13;;;;;;;18.27;10.80;;;;;;;0.89;100.00;101394.56;5032562;28;20240;-69
2021/10/11 04:53:41;;;;;;;20.40;12.13;;;;;;;0.98;100.00;101393.94;5028829;28;20205;-70
2021/10/11 04:56:08;;;;;;;26.43;12.40;;;;;;;1.02;100.00;101393.22;5031641;28;20220;-71
2021/10/11 04:58:34;;;;;;;18.70;10.93;;;;;;;1.10;100.00;101390.81;5027457;28;20560;-69
2021/10/11 05:01:01;;;;;;;21.27;11.47;;;;;;;1.10;100.00;101390.81;5028548;28;20208;-69
2021/10/11 05:03:28;;;;;;;19.30;11.63;;;;;;;1.21;100.00;101386.78;5029857;28;20203;-69
2021/10/11 05:05:58;;;;;;;22.10;11.37;;;;;;;1.33;100.00;101381.97;5031543;28;20195;-69
2021/10/11 05:08:27;;;;;;;19.37;12.10;;;;;;;1.31;100.00;101370.78;5030004;28;20206;-70
2021/10/11 05:10:53;;;;;;;24.13;12.13;;;;;;;1.33;100.00;101384.53;5029338;28;20231;-69
2021/10/11 05:13:20;;;;;;;21.47;11.80;;;;;;;1.35;100.00;101391.41;5035134;28;20203;-69
2021/10/11 05:15:47;;;;;;;21.60;11.27;;;;;;;1.35;100.00;101384.56;5027399;28;20194;-69
2021/10/11 05:18:13;;;;;;;20.67;11.27;;;;;;;1.52;100.00;101392.69;5030032;28;20224;-71
2021/10/11 05:20:46;;;;;;;19.07;11.10;;;;;;;1.55;100.00;101389.28;5030400;28;20231;-71
2021/10/11 05:23:14;;;;;;;18.40;10.80;;;;;;;1.46;100.00;101392.53;5028919;28;20222;-72
2021/10/11 05:25:41;;;;;;;17.37;10.70;;;;;;;1.57;100.00;101390.22;5029258;28;20378;-69
2021/10/11 05:28:08;;;;;;;18.20;10.63;;;;;;;1.57;100.00;101396.22;5014537;28;20792;-70
2021/10/11 05:30:35;;;;;;;20.33;10.80;;;;;;;1.58;100.00;101391.94;5032704;28;20361;-72
2021/10/11 05:33:01;;;;;;;20.30;10.97;;;;;;;1.67;100.00;101392.16;5027905;28;20268;-72
2021/10/11 05:35:28;;;;;;;22.03;11.53;;;;;;;1.73;100.00;101387.16;5032620;28;20184;-71
2021/10/11 05:37:55;;;;;;;16.67;10.40;;;;;;;1.75;100.00;101392.34;5030001;28;20221;-71
2021/10/11 05:40:23;;;;;;;17.57;11.10;;;;;;;1.79;100.00;101394.13;5027221;28;20202;-71
2021/10/11 05:42:50;;;;;;;18.57;11.33;;;;;;;1.77;100.00;101381.25;5034989;28;20228;-71
2021/10/11 05:45:17;;;;;;;19.10;10.33;;;;;;;1.67;100.00;101392.16;5026390;28;20264;-71
2021/10/11 05:47:43;;;;;;;22.13;10.83;;;;;;;1.77;100.00;101399.25;5032691;28;20201;-71
2021/10/11 05:50:10;;;;;;;17.93;10.53;;;;;;;1.95;100.00;101396.19;5029225;28;20246;-71
2021/10/11 05:52:41;;;;;;;20.00;10.83;;;;;;;1.99;100.00;101395.44;5029225;28;20225;-70
2021/10/11 05:55:09;;;;;;;20.50;10.43;;;;;;;2.05;100.00;101389.56;5045078;28;20575;-69
2021/10/11 05:57:37;;;;;;;20.53;11.37;;;;;;;2.12;100.00;101393.13;5029010;28;20217;-70
2021/10/11 06:00:05;;;;;;;18.20;10.43;;;;;;;2.18;100.00;101389.00;5029145;28;20207;-69
2021/10/11 06:02:31;;;;;;;17.20;10.80;;;;;;;2.17;100.00;101396.66;5030145;28;20241;-70
2021/10/11 06:04:58;;;;;;;20.20;11.20;;;;;;;2.21;100.00;101391.59;5030576;28;20184;-69
2021/10/11 06:07:25;;;;;;;20.60;11.20;;;;;;;2.31;100.00;101392.66;5028626;28;20202;-70
2021/10/11 06:09:51;;;;;;;17.97;11.13;;;;;;;2.37;100.00;101385.06;5031317;28;20206;-69
2021/10/11 06:12:18;;;;;;;16.57;11.00;;;;;;;2.42;100.00;101382.59;5031002;28;20237;-70
2021/10/11 06:14:46;;;;;;;20.77;11.00;;;;;;;2.43;100.00;101374.03;5035177;28;20222;-70
2021/10/11 06:17:14;;;;;;;16.77;10.83;;;;;;;2.45;100.00;101378.34;5032379;28;20214;-69
2021/10/11 06:19:41;;;;;;;18.80;11.57;;;;;;;2.46;100.00;101389.50;5032720;28;20224;-70
2021/10/11 06:22:07;;;;;;;16.23;10.40;;;;;;;2.48;100.00;101380.13;5025461;28;20223;-69
2021/10/11 06:24:34;;;;;;;18.83;11.20;;;;;;;2.57;100.00;101387.13;5026820;28;20197;-70
2021/10/11 06:27:03;;;;;;;14.40;9.30;;;;;;;2.65;100.00;101385.59;5028387;28;20201;-69
2021/10/11 06:29:29;;;;;;;16.43;10.57;;;;;;;2.79;100.00;101388.41;5034217;28;20244;-69
2021/10/11 06:31:57;;;;;;;16.13;10.37;;;;;;;2.84;100.00;101386.78;5028625;28;20222;-70
2021/10/11 06:34:24;;;;;;;17.60;10.83;;;;;;;2.97;100.00;101387.88;5022519;28;20203;-70
2021/10/11 06:36:51;;;;;;;16.83;10.77;;;;;;;2.94;100.00;101391.28;5029155;28;20223;-69
2021/10/11 06:39:23;;;;;;;15.87;10.67;;;;;;;2.97;100.00;101395.59;5037248;28;20212;-71
2021/10/11 06:41:49;;;;;;;16.63;10.77;;;;;;;3.06;100.00;101382.91;5022224;28;20640;-70
2021/10/11 06:44:16;;;;;;;17.00;10.57;;;;;;;3.12;100.00;101393.28;5024330;28;20196;-70
2021/10/11 06:46:42;;;;;;;17.03;9.90;;;;;;;3.19;100.00;101399.41;5030263;28;20250;-70
2021/10/11 06:49:10;;;;;;;14.90;9.07;;;;;;;3.18;100.00;101395.09;5044367;28;20190;-69
2021/10/11 06:51:37;;;;;;;17.50;9.97;;;;;;;3.30;100.00;101397.00;5027815;28;20228;-69
2021/10/11 06:54:03;;;;;;;19.43;10.60;;;;;;;3.37;100.00;101394.53;5027664;28;20208;-69
2021/10/11 06:56:30;;;;;;;18.03;11.30;;;;;;;3.48;100.00;101402.44;5025853;28;20263;-70
2021/10/11 06:58:56;;;;;;;16.77;10.63;;;;;;;3.50;100.00;101405.03;5027837;28;20204;-71
2021/10/11 07:01:23;;;;;;;14.47;9.30;;;;;;;3.55;100.00;101408.56;5023150;28;20224;-70
2021/10/11 07:03:49;;;;;;;15.13;9.20;;;;;;;3.64;100.00;101407.84;5023102;28;20631;-70
2021/10/11 07:06:19;;;;;;;15.33;9.10;;;;;;;3.68;100.00;101413.06;5025666;28;20208;-70
2021/10/11 07:08:46;;;;;;;13.90;8.73;;;;;;;3.77;100.00;101404.59;5015808;28;20217;-71
2021/10/11 07:11:12;;;;;;;17.40;9.83;;;;;;;3.83;100.00;101404.69;5027708;28;20247;-72
2021/10/11 07:13:40;;;;;;;18.70;9.30;;;;;;;3.82;100.00;101399.50;5022564;28;20205;-70
2021/10/11 07:16:08;;;;;;;15.37;8.73;;;;;;;3.96;100.00;101388.53;5028574;28;20232;-71
2021/10/11 07:18:36;;;;;;;15.57;9.47;;;;;;;4.05;100.00;101392.09;5028717;28;20245;-70
2021/10/11 07:21:02;;;;;;;17.60;9.80;;;;;;;4.16;100.00;101393.94;5023262;28;20216;-70
2021/10/11 07:23:31;;;;;;;14.10;9.43;;;;;;;4.29;100.00;101386.34;5024290;28;20266;-71
2021/10/11 07:26:01;;;;;;;18.63;9.63;;;;;;;4.35;100.00;101392.44;5024047;28;20225;-70
2021/10/11 07:28:29;;;;;;;13.97;9.50;;;;;;;4.43;100.00;101396.84;5024951;28;20249;-70
2021/10/11 07:30:55;;;;;;;13.00;8.67;;;;;;;4.49;100.00;101402.94;5022316;28;20234;-71
2021/10/11 07:33:22;;;;;;;13.43;8.17;;;;;;;4.57;100.00;101395.28;5022273;28;20200;-69
2021/10/11 07:35:49;;;;;;;13.40;8.63;;;;;;;4.64;100.00;101394.47;5026495;28;20201;-70
2021/10/11 07:38:16;;;;;;;14.83;9.03;;;;;;;4.78;100.00;101392.03;5020443;28;20251;-70
2021/10/11 07:40:44;;;;;;;15.30;8.63;;;;;;;4.82;100.00;101392.94;5023819;28;20208;-69
2021/10/11 07:43:11;;;;;;;15.77;8.90;;;;;;;4.89;100.00;101393.03;5030892;28;20262;-71
2021/10/11 07:45:38;;;;;;;13.10;9.07;;;;;;;4.99;100.00;101391.38;5021831;28;20227;-70
2021/10/11 07:48:05;;;;;;;13.63;9.40;;;;;;;5.08;100.00;101390.59;5021015;28;20228;-71
2021/10/11 07:50:31;;;;;;;12.43;8.67;;;;;;;5.17;100.00;101390.69;5022552;28;20216;-70
2021/10/11 07:52:58;;;;;;;12.00;8.63;;;;;;;5.29;100.00;101393.38;5024208;28;20256;-71
2021/10/11 07:55:25;;;;;;;16.30;8.30;;;;;;;5.37;100.00;101395.16;5023175;28;20232;-71
2021/10/11 07:57:52;;;;;;;12.37;8.23;;;;;;;5.44;100.00;101390.03;5022066;28;20216;-69
2021/10/11 08:00:24;;;;;;;13.27;8.63;;;;;;;5.61;100.00;101391.84;5021358;28;20217;-71
2021/10/11 08:02:51;;;;;;;12.40;8.33;;;;;;;5.66;100.00;101395.34;5020657;28;20224;-70
2021/10/11 08:05:17;;;;;;;13.77;8.70;;;;;;;5.74;100.00;101396.28;5024649;28;20295;-70
2021/10/11 08:11:32;;;;;;;14.07;7.83;;;;;;;5.95;100.00;101403.28;5009551;28;20221;-72
2021/10/11 08:14:00;;;;;;;14.53;8.30;;;;;;;6.04;100.00;101394.75;5004066;28;20208;-71
2021/10/11 08:16:26;;;;;;;12.70;9.07;;;;;;;6.09;100.00;101402.53;5005561;28;20628;-71
2021/10/11 08:18:53;;;;;;;16.03;8.77;;;;;;;6.14;100.00;101409.47;5007843;28;20764;-72
2021/10/11 08:21:19;;;;;;;14.13;8.50;;;;;;;6.16;100.00;101415.50;5008434;28;20274;-73
2021/10/11 08:23:46;;;;;;;12.03;8.20;;;;;;;6.21;100.00;101412.97;5008244;28;20232;-71
2021/10/11 08:26:12;;;;;;;12.77;9.00;;;;;;;6.22;100.00;101415.53;5008915;28;20210;-72
2021/10/11 08:28:40;;;;;;;14.13;9.07;;;;;;;6.25;100.00;101420.72;5009541;28;20224;-73
2021/10/11 08:31:07;;;;;;;15.70;10.40;;;;;;;6.27;100.00;101412.97;5005645;28;20220;-72
2021/10/11 08:33:34;;;;;;;15.07;9.63;;;;;;;6.38;100.00;101413.84;5009086;28;20292;-70
2021/10/11 08:36:01;;;;;;;15.13;9.93;;;;;;;6.47;100.00;101417.34;5007753;28;20238;-70
2021/10/11 08:38:28;;;;;;;14.00;9.40;;;;;;;6.48;100.00;101414.78;5007399;28;20311;-70
2021/10/11 08:40:56;;;;;;;14.83;9.27;;;;;;;6.59;100.00;101410.47;5004189;28;20224;-73
2021/10/11 08:43:23;;;;;;;13.13;8.63;;;;;;;6.68;100.00;101407.03;5010041;28;20208;-70
2021/10/11 08:45:51;;;;;;;14.93;9.37;;;;;;;6.72;100.00;101400.13;5003978;28;20200;-70
2021/10/11 08:48:19;;;;;;;13.33;9.57;;;;;;;6.71;99.93;101393.25;4999445;28;20661;-73
2021/10/11 08:50:45;;;;;;;11.83;8.70;;;;;;;6.73;99.86;101397.56;5003988;28;20209;-73
2021/10/11 08:53:14;;;;;;;12.73;8.33;;;;;;;6.82;100.00;101400.19;5008794;28;20220;-70
2021/10/11 08:55:40;;;;;;;18.13;9.17;;;;;;;6.89;100.00;101395.84;5005726;28;20205;-70
2021/10/11 08:59:03;;;;;;;13.87;9.40;;;;;;;7.02;99.21;101391.56;5004901;28;20213;-70
2021/10/11 09:01:29;;;;;;;14.00;9.90;;;;;;;7.19;97.65;101396.75;5022840;28;20359;-71
2021/10/11 09:04:02;;;;;;;13.57;9.20;;;;;;;7.43;97.93;101389.84;5003403;28;20296;-73
2021/10/11 09:06:28;;;;;;;15.03;9.93;;;;;;;7.65;96.46;101393.25;5003834;28;20288;-71
2021/10/11 09:08:55;;;;;;;14.17;9.83;;;;;;;7.97;95.54;101385.41;5004597;28;20290;-71
2021/10/11 09:11:21;;;;;;;14.00;9.60;;;;;;;8.24;92.53;101387.00;5009409;28;20235;-71
2021/10/11 09:13:51;;;;;;;14.30;9.90;;;;;;;8.49;91.70;101392.97;5004979;28;20264;-72
2021/10/11 09:16:23;;;;;;;16.83;9.97;;;;;;;8.77;92.18;101390.22;4999067;28;20204;-71
2021/10/11 09:18:53;;;;;;;13.97;10.10;;;;;;;8.95;90.81;101393.56;5005325;28;20224;-72
2021/10/11 09:21:31;;;;;;;14.77;10.83;;;;;;;9.09;90.06;101394.34;5003103;28;20216;-70
2021/10/11 09:24:06;;;;;;;15.93;9.93;;;;;;;9.05;87.07;101392.66;5005477;28;20209;-71
2021/10/11 09:26:41;;;;;;;17.83;10.00;;;;;;;9.10;89.86;101393.47;5004751;28;20213;-71
2021/10/11 09:29:08;;;;;;;14.00;9.80;;;;;;;9.17;88.49;101404.69;5007098;28;20284;-71
2021/10/11 09:31:39;;;;;;;13.93;9.53;;;;;;;9.17;88.05;101399.50;5007418;28;20239;-71
2021/10/11 09:34:06;;;;;;;14.13;10.80;;;;;;;9.21;88.04;101404.66;5008241;28;20199;-71
2021/10/11 09:36:34;;;;;;;15.30;9.93;;;;;;;9.19;86.75;101400.34;5002810;28;20630;-72
2021/10/11 09:39:01;;;;;;;17.20;9.43;;;;;;;9.23;87.84;101397.72;5002364;28;20230;-71
2021/10/11 09:41:28;;;;;;;14.93;9.93;;;;;;;9.22;86.14;101406.38;5004462;28;20228;-71
2021/10/11 09:43:55;;;;;;;16.30;9.73;;;;;;;9.34;87.57;101392.41;5005974;28;20211;-71
2021/10/11 09:46:24;;;;;;;13.63;9.67;;;;;;;9.48;87.67;101392.28;5019386;28;20214;-70
2021/10/11 09:48:51;;;;;;;15.27;10.30;;;;;;;9.61;86.86;101393.88;5005943;28;20224;-70
2021/10/11 09:51:21;;;;;;;14.53;10.20;;;;;;;9.74;87.41;101392.00;5007419;28;20246;-71
2021/10/11 09:53:49;;;;;;;16.37;10.30;;;;;;;9.71;84.46;101404.19;5002618;28;20218;-71
2021/10/11 09:56:16;;;;;;;16.40;10.50;;;;;;;9.75;85.41;101401.56;5004453;28;20212;-71
2021/10/11 09:58:42;;;;;;;20.63;10.60;;;;;;;9.76;85.10;101405.91;5003153;28;20600;-71
2021/10/11 10:01:08;;;;;;;18.10;9.33;;;;;;;9.73;85.11;101405.06;5005940;28;20224;-71
2021/10/11 10:03:36;;;;;;;16.80;10.60;;;;;;;9.75;84.89;101408.53;5007440;28;20212;-71
2021/10/11 10:06:06;;;;;;;13.23;10.03;;;;;;;9.85;85.45;101416.22;5005755;28;20368;-71
2021/10/11 10:08:37;;;;;;;15.83;10.13;;;;;;;9.77;84.78;101407.63;5007897;28;20204;-72
2021/10/11 10:11:05;;;;;;;16.33;10.47;;;;;;;9.70;85.55;101394.69;5003339;28;20232;-72
2021/10/11 10:13:36;;;;;;;16.33;11.03;;;;;;;9.60;86.35;101399.09;5005105;28;20748;-70
2021/10/11 10:16:08;;;;;;;16.17;10.67;;;;;;;9.56;86.50;101400.03;5005149;28;20223;-72
2021/10/11 10:18:39;;;;;;;17.53;11.03;;;;;;;9.55;87.42;101393.06;5000970;28;20232;-71
2021/10/11 10:21:06;;;;;;;17.57;10.97;;;;;;;9.49;88.08;101388.78;5006002;28;20630;-70
2021/10/11 10:23:34;;;;;;;18.60;10.87;;;;;;;9.50;87.97;101392.25;5004285;28;20734;-72
2021/10/11 10:26:03;;;;;;;18.50;12.07;;;;;;;9.51;88.36;101388.78;5004710;28;20202;-71
2021/10/11 10:28:42;;;;;;;22.90;13.00;;;;;;;9.45;88.41;101385.38;5003199;28;20206;-71
2021/10/11 10:31:09;;;;;;;19.17;12.13;;;;;;;9.49;89.56;101383.59;5005800;28;20636;-72
2021/10/11 10:33:37;;;;;;;20.37;12.93;;;;;;;9.48;91.39;101374.94;5004823;28;20848;-71
2021/10/11 10:36:05;;;;;;;20.53;12.90;;;;;;;9.42;93.24;101379.31;5004942;28;20208;-70
2021/10/11 10:38:32;;;;;;;26.93;14.40;;;;;;;9.26;94.68;101374.25;5004079;28;20227;-70
2021/10/11 10:40:58;;;;;;;24.73;14.33;;;;;;;9.17;96.19;101366.53;5004744;28;20357;-71
2021/10/11 10:43:25;;;;;;;24.23;14.93;;;;;;;9.18;98.82;101369.97;5005251;28;20612;-73
2021/10/11 10:45:53;;;;;;;24.30;14.80;;;;;;;9.10;99.18;101372.66;5005836;28;20212;-73
2021/10/11 10:48:22;;;;;;;22.40;15.10;;;;;;;9.00;99.41;101371.00;5002189;28;20246;-71
2021/10/11 10:50:50;;;;;;;25.40;15.17;;;;;;;8.90;100.00;101360.69;5003166;28;20232;-70
2021/10/11 10:53:17;;;;;;;25.87;15.43;;;;;;;8.95;100.00;101362.38;5005027;28;20204;-71
2021/10/11 10:55:44;;;;;;;24.67;15.73;;;;;;;8.94;100.00;101364.13;5002182;28;20212;-71
2021/10/11 10:58:15;;;;;;;23.83;16.07;;;;;;;8.92;100.00;101358.06;5003072;28;20227;-71
2021/10/11 11:00:42;;;;;;;25.67;15.60;;;;;;;8.88;100.00;101362.44;5005546;28;20212;-72
2021/10/11 11:03:13;;;;;;;26.80;16.37;;;;;;;8.81;100.00;101362.47;5006030;28;20249;-72
2021/10/11 11:05:41;;;;;;;27.67;16.83;;;;;;;8.82;100.00;101357.25;5005927;28;20204;-70
2021/10/11 11:08:08;;;;;;;27.03;15.43;;;;;;;8.81;100.00;101360.75;5004143;28;20200;-70
2021/10/11 11:10:36;;;;;;;28.90;17.37;;;;;;;8.83;100.00;101360.72;5003536;28;20211;-71
2021/10/11 11:13:06;;;;;;;27.50;17.20;;;;;;;8.79;100.00;101353.81;5005645;28;20207;-73
2021/10/11 11:15:36;;;;;;;30.43;16.60;;;;;;;8.81;100.00;101350.34;5004563;28;20785;-71